createdAt,value
2022-12-11T00:00:15.780Z,28.08
2022-12-11T00:02:42.569Z,26.40
2022-12-11T00:05:09.935Z,29.85
2022-12-11T00:07:36.882Z,27.60
2022-12-11T00:10:04.361Z,28.58
2022-12-11T00:12:31.607Z,30.50
2022-12-11T00:14:58.563Z,27.73
2022-12-11T00:17:25.491Z,30.08
2022-12-11T00:19:52.279Z,31.52
2022-12-11T00:22:19.023Z,27.85
2022-12-11T00:24:45.762Z,31.05
2022-12-11T00:27:12.562Z,32.92
2022-12-11T00:29:39.321Z,29.67
2022-12-11T00:32:06.195Z,30.65
2022-12-11T00:34:33.008Z,34.63
2022-12-11T00:36:59.811Z,33.50
2022-12-11T00:39:26.657Z,26.92
2022-12-11T00:41:53.390Z,29.27
2022-12-11T00:44:20.166Z,27.83
2022-12-11T00:46:46.945Z,30.00
2022-12-11T00:49:13.900Z,28.55
2022-12-11T00:51:40.653Z,26.35
2022-12-11T00:54:07.502Z,25.98
2022-12-11T00:56:34.390Z,29.58
2022-12-11T00:59:01.182Z,27.23
2022-12-11T01:01:27.967Z,25.52
2022-12-11T01:03:54.861Z,25.77
2022-12-11T01:06:24.344Z,30.85
2022-12-11T01:09:10.996Z,25.52
2022-12-11T01:11:38.358Z,27.10
2022-12-11T01:14:05.329Z,23.38
2022-12-11T01:16:32.334Z,25.08
2022-12-11T01:18:59.185Z,26.75
2022-12-11T01:21:26.741Z,24.77
2022-12-11T01:23:53.722Z,25.70
2022-12-11T01:26:21.489Z,25.65
2022-12-11T01:28:51.340Z,23.15
2022-12-11T01:31:20.478Z,24.33
2022-12-11T01:33:47.501Z,22.20
2022-12-11T01:36:20.587Z,23.10
2022-12-11T01:38:48.592Z,21.27
2022-12-11T01:41:16.980Z,21.48
2022-12-11T01:43:57.089Z,25.00
2022-12-11T01:46:24.404Z,23.75
2022-12-11T01:48:51.286Z,23.27
2022-12-11T01:51:18.314Z,24.15
2022-12-11T01:53:54.160Z,21.65
2022-12-11T01:56:21.060Z,19.67
2022-12-11T01:58:52.312Z,21.00
2022-12-11T02:01:28.474Z,21.48
2022-12-11T02:03:56.883Z,24.15
2022-12-11T02:06:45.768Z,21.48
2022-12-11T02:09:19.329Z,22.98
2022-12-11T02:12:04.622Z,21.73
2022-12-11T02:14:56.037Z,18.52
2022-12-11T02:17:48.471Z,23.90
2022-12-11T02:20:25.906Z,25.88
2022-12-11T02:22:58.644Z,21.23
2022-12-11T02:28:29.894Z,21.67
2022-12-11T02:33:38.994Z,27.10
2022-12-11T02:36:08.082Z,25.67
2022-12-11T02:38:38.808Z,24.25
2022-12-11T02:41:08.410Z,22.50
2022-12-11T02:43:37.334Z,22.45
2022-12-11T02:46:07.486Z,22.77
2022-12-11T02:48:36.004Z,23.40
2022-12-11T02:51:04.715Z,19.80
2022-12-11T02:53:35.139Z,18.23
2022-12-11T02:56:26.650Z,17.17
2022-12-11T02:59:01.257Z,19.33
2022-12-11T03:01:28.503Z,18.70
2022-12-11T03:03:56.501Z,17.30
2022-12-11T03:06:38.081Z,16.88
2022-12-11T03:09:05.790Z,17.02
2022-12-11T03:11:32.559Z,15.88
2022-12-11T03:14:02.839Z,16.60
2022-12-11T03:16:35.966Z,17.20
2022-12-11T03:19:29.971Z,17.60
2022-12-11T03:22:23.405Z,14.90
2022-12-11T03:25:08.724Z,17.50
2022-12-11T03:27:49.640Z,18.13
2022-12-11T03:30:21.522Z,18.65
2022-12-11T03:33:09.093Z,18.90
2022-12-11T03:35:40.941Z,17.55
2022-12-11T03:38:18.944Z,16.00
2022-12-11T03:40:47.835Z,18.08
2022-12-11T03:43:16.159Z,17.52
2022-12-11T03:45:44.902Z,15.23
2022-12-11T03:48:13.575Z,17.38
2022-12-11T03:50:41.623Z,14.60
2022-12-11T03:53:09.517Z,17.40
2022-12-11T03:55:38.386Z,16.08
2022-12-11T03:58:05.508Z,15.40
2022-12-11T04:00:32.679Z,16.73
2022-12-11T04:03:14.941Z,16.95
2022-12-11T04:05:43.925Z,16.00
2022-12-11T04:08:11.344Z,16.85
2022-12-11T04:10:38.490Z,16.02
2022-12-11T04:13:05.503Z,17.23
2022-12-11T04:15:32.356Z,16.58
2022-12-11T04:18:17.678Z,16.83
2022-12-11T04:21:03.340Z,17.60
2022-12-11T04:23:48.984Z,16.38
2022-12-11T04:26:21.081Z,17.38
2022-12-11T04:28:48.705Z,16.60
2022-12-11T04:31:21.153Z,15.95
